sensor_id;sensor_type;location;lat;lon;timestamp;P1;durP1;ratioP1;P2;durP2;ratioP2
28605;SDS011;46498;49.968;7.754;2022-10-31T09:09:48;14.35;;;6.35;;
28605;SDS011;46498;49.968;7.754;2022-10-31T09:14:51;16.77;;;7.10;;
28605;SDS011;46498;49.968;7.754;2022-10-31T09:20:02;17.45;;;7.30;;
28605;SDS011;46498;49.968;7.754;2022-10-31T09:25:05;13.68;;;6.22;;
28605;SDS011;46498;49.968;7.754;2022-10-31T09:30:07;22.85;;;8.50;;
28605;SDS011;46498;49.968;7.754;2022-10-31T09:35:09;18.03;;;8.17;;
28605;SDS011;46498;49.968;7.754;2022-10-31T09:40:10;19.77;;;7.95;;
28605;SDS011;46498;49.968;7.754;2022-10-31T09:45:15;22.02;;;8.27;;
28605;SDS011;46498;49.968;7.754;2022-10-31T09:57:37;21.12;;;9.30;;
28605;SDS011;46498;49.968;7.754;2022-10-31T10:11:57;16.92;;;8.02;;
28605;SDS011;46498;49.968;7.754;2022-10-31T10:25:52;19.62;;;8.75;;
28605;SDS011;46498;49.968;7.754;2022-10-31T10:31:14;21.40;;;9.40;;
28605;SDS011;46498;49.968;7.754;2022-10-31T10:36:26;18.75;;;8.98;;
28605;SDS011;46498;49.968;7.754;2022-10-31T10:41:32;24.40;;;10.82;;
28605;SDS011;46498;49.968;7.754;2022-10-31T10:46:41;27.30;;;11.07;;
28605;SDS011;46498;49.968;7.754;2022-10-31T11:00:22;28.17;;;9.15;;
28605;SDS011;46498;49.968;7.754;2022-10-31T11:11:26;27.55;;;11.12;;
28605;SDS011;46498;49.968;7.754;2022-10-31T11:16:38;28.30;;;11.12;;
28605;SDS011;46498;49.968;7.754;2022-10-31T11:21:42;29.30;;;10.48;;
28605;SDS011;46498;49.968;7.754;2022-10-31T11:27:05;25.35;;;11.10;;
28605;SDS011;46498;49.968;7.754;2022-10-31T11:32:23;22.00;;;10.18;;
28605;SDS011;46498;49.968;7.754;2022-10-31T11:37:27;29.50;;;9.80;;
28605;SDS011;46498;49.968;7.754;2022-10-31T11:42:39;22.50;;;9.77;;
28605;SDS011;46498;49.968;7.754;2022-10-31T11:47:43;19.55;;;9.48;;
28605;SDS011;46498;49.968;7.754;2022-10-31T11:52:47;20.02;;;8.50;;
28605;SDS011;46498;49.968;7.754;2022-10-31T11:57:51;24.07;;;9.30;;
28605;SDS011;46498;49.968;7.754;2022-10-31T12:03:04;22.50;;;8.77;;
28605;SDS011;46498;49.968;7.754;2022-10-31T12:08:21;25.88;;;10.38;;
28605;SDS011;46498;49.968;7.754;2022-10-31T12:13:32;25.45;;;10.18;;
28605;SDS011;46498;49.968;7.754;2022-10-31T12:32:01;25.23;;;8.98;;
28605;SDS011;46498;49.968;7.754;2022-10-31T12:40:38;14.35;;;7.87;;
28605;SDS011;46498;49.968;7.754;2022-10-31T12:45:58;30.48;;;9.20;;
28605;SDS011;46498;49.968;7.754;2022-10-31T12:57:52;19.95;;;8.05;;
28605;SDS011;46498;49.968;7.754;2022-10-31T13:03:15;26.10;;;8.30;;
28605;SDS011;46498;49.968;7.754;2022-10-31T13:08:42;29.40;;;12.63;;
28605;SDS011;46498;49.968;7.754;2022-10-31T13:19:38;21.45;;;8.45;;
28605;SDS011;46498;49.968;7.754;2022-10-31T13:30:17;23.30;;;9.02;;
28605;SDS011;46498;49.968;7.754;2022-10-31T13:43:48;20.55;;;8.73;;
28605;SDS011;46498;49.968;7.754;2022-10-31T13:49:00;19.05;;;7.68;;
28605;SDS011;46498;49.968;7.754;2022-10-31T13:54:06;21.42;;;7.82;;
28605;SDS011;46498;49.968;7.754;2022-10-31T13:59:23;22.20;;;8.27;;
28605;SDS011;46498;49.968;7.754;2022-10-31T14:04:36;16.17;;;7.05;;
28605;SDS011;46498;49.968;7.754;2022-10-31T14:10:06;19.73;;;6.15;;
28605;SDS011;46498;49.968;7.754;2022-10-31T14:15:22;16.92;;;4.57;;
28605;SDS011;46498;49.968;7.754;2022-10-31T14:20:44;17.90;;;4.78;;
28605;SDS011;46498;49.968;7.754;2022-10-31T14:25:46;19.42;;;5.15;;
28605;SDS011;46498;49.968;7.754;2022-10-31T14:30:57;20.25;;;5.78;;
28605;SDS011;46498;49.968;7.754;2022-10-31T14:36:10;17.73;;;4.85;;
28605;SDS011;46498;49.968;7.754;2022-10-31T14:41:57;12.00;;;4.10;;
28605;SDS011;46498;49.968;7.754;2022-10-31T14:55:35;16.92;;;5.28;;
28605;SDS011;46498;49.968;7.754;2022-10-31T15:00:44;17.35;;;6.87;;
28605;SDS011;46498;49.968;7.754;2022-10-31T15:05:49;13.48;;;5.95;;
28605;SDS011;46498;49.968;7.754;2022-10-31T15:10:53;18.45;;;6.57;;
28605;SDS011;46498;49.968;7.754;2022-10-31T15:15:54;20.08;;;6.10;;
28605;SDS011;46498;49.968;7.754;2022-10-31T15:20:56;14.63;;;5.10;;
28605;SDS011;46498;49.968;7.754;2022-10-31T15:26:00;21.37;;;5.78;;
28605;SDS011;46498;49.968;7.754;2022-10-31T15:31:03;20.92;;;7.87;;
28605;SDS011;46498;49.968;7.754;2022-10-31T15:36:04;13.13;;;4.87;;
28605;SDS011;46498;49.968;7.754;2022-10-31T15:41:06;12.00;;;5.62;;
28605;SDS011;46498;49.968;7.754;2022-10-31T15:46:31;19.98;;;6.80;;
28605;SDS011;46498;49.968;7.754;2022-10-31T15:51:34;20.12;;;6.85;;
28605;SDS011;46498;49.968;7.754;2022-10-31T15:56:35;22.42;;;8.20;;
28605;SDS011;46498;49.968;7.754;2022-10-31T16:01:36;21.65;;;6.75;;
28605;SDS011;46498;49.968;7.754;2022-10-31T16:06:37;15.07;;;6.18;;
28605;SDS011;46498;49.968;7.754;2022-10-31T16:11:38;17.50;;;5.80;;
28605;SDS011;46498;49.968;7.754;2022-10-31T16:16:41;17.55;;;6.85;;
28605;SDS011;46498;49.968;7.754;2022-10-31T16:21:44;26.10;;;9.43;;
28605;SDS011;46498;49.968;7.754;2022-10-31T16:26:48;17.55;;;7.18;;
28605;SDS011;46498;49.968;7.754;2022-10-31T16:36:52;19.50;;;8.32;;
28605;SDS011;46498;49.968;7.754;2022-10-31T16:41:54;22.08;;;8.38;;
28605;SDS011;46498;49.968;7.754;2022-10-31T16:47:07;39.65;;;12.07;;
28605;SDS011;46498;49.968;7.754;2022-10-31T16:52:17;20.12;;;8.50;;
28605;SDS011;46498;49.968;7.754;2022-10-31T16:57:19;19.15;;;8.30;;
28605;SDS011;46498;49.968;7.754;2022-10-31T17:02:30;17.62;;;8.00;;
28605;SDS011;46498;49.968;7.754;2022-10-31T17:07:31;21.05;;;7.32;;
28605;SDS011;46498;49.968;7.754;2022-10-31T17:12:32;23.90;;;7.20;;
28605;SDS011;46498;49.968;7.754;2022-10-31T17:17:33;25.52;;;9.23;;
28605;SDS011;46498;49.968;7.754;2022-10-31T17:22:33;22.27;;;8.77;;
28605;SDS011;46498;49.968;7.754;2022-10-31T17:27:34;25.83;;;9.43;;
28605;SDS011;46498;49.968;7.754;2022-10-31T17:32:35;24.00;;;9.57;;
28605;SDS011;46498;49.968;7.754;2022-10-31T17:37:36;22.05;;;10.25;;
28605;SDS011;46498;49.968;7.754;2022-10-31T17:42:37;26.48;;;12.32;;
28605;SDS011;46498;49.968;7.754;2022-10-31T17:47:38;26.17;;;11.27;;
28605;SDS011;46498;49.968;7.754;2022-10-31T17:52:39;20.77;;;10.35;;
28605;SDS011;46498;49.968;7.754;2022-10-31T17:57:40;28.92;;;12.82;;
28605;SDS011;46498;49.968;7.754;2022-10-31T18:02:41;29.87;;;14.48;;
28605;SDS011;46498;49.968;7.754;2022-10-31T18:07:42;23.17;;;12.32;;
28605;SDS011;46498;49.968;7.754;2022-10-31T18:12:43;22.75;;;9.55;;
28605;SDS011;46498;49.968;7.754;2022-10-31T18:17:43;33.33;;;12.88;;
28605;SDS011;46498;49.968;7.754;2022-10-31T18:22:45;29.40;;;12.93;;
28605;SDS011;46498;49.968;7.754;2022-10-31T18:27:46;25.20;;;11.40;;
28605;SDS011;46498;49.968;7.754;2022-10-31T18:32:48;31.02;;;12.68;;
28605;SDS011;46498;49.968;7.754;2022-10-31T18:37:50;21.50;;;9.80;;
28605;SDS011;46498;49.968;7.754;2022-10-31T18:42:51;22.30;;;10.82;;
28605;SDS011;46498;49.968;7.754;2022-10-31T18:47:52;22.75;;;10.45;;
28605;SDS011;46498;49.968;7.754;2022-10-31T18:52:53;24.63;;;9.98;;
28605;SDS011;46498;49.968;7.754;2022-10-31T18:57:54;19.73;;;9.77;;
28605;SDS011;46498;49.968;7.754;2022-10-31T19:02:55;22.40;;;8.70;;
28605;SDS011;46498;49.968;7.754;2022-10-31T19:07:57;19.67;;;9.43;;
28605;SDS011;46498;49.968;7.754;2022-10-31T19:12:58;21.40;;;9.50;;
28605;SDS011;46498;49.968;7.754;2022-10-31T19:18:01;26.45;;;9.93;;
28605;SDS011;46498;49.968;7.754;2022-10-31T19:23:02;18.37;;;9.85;;
28605;SDS011;46498;49.968;7.754;2022-10-31T19:28:03;26.33;;;13.50;;
28605;SDS011;46498;49.968;7.754;2022-10-31T19:33:05;27.55;;;10.45;;
28605;SDS011;46498;49.968;7.754;2022-10-31T19:38:06;22.40;;;9.95;;
28605;SDS011;46498;49.968;7.754;2022-10-31T19:43:07;21.70;;;10.38;;
28605;SDS011;46498;49.968;7.754;2022-10-31T19:48:08;25.40;;;10.93;;
28605;SDS011;46498;49.968;7.754;2022-10-31T19:53:09;23.60;;;10.90;;
28605;SDS011;46498;49.968;7.754;2022-10-31T19:58:10;22.60;;;9.55;;
28605;SDS011;46498;49.968;7.754;2022-10-31T20:03:11;22.73;;;8.95;;
28605;SDS011;46498;49.968;7.754;2022-10-31T20:08:16;17.87;;;8.05;;
28605;SDS011;46498;49.968;7.754;2022-10-31T20:13:19;26.33;;;10.93;;
28605;SDS011;46498;49.968;7.754;2022-10-31T20:18:19;25.17;;;13.52;;
28605;SDS011;46498;49.968;7.754;2022-10-31T20:23:21;28.40;;;9.65;;
28605;SDS011;46498;49.968;7.754;2022-10-31T20:28:21;22.00;;;8.52;;
28605;SDS011;46498;49.968;7.754;2022-10-31T20:33:22;25.95;;;10.80;;
28605;SDS011;46498;49.968;7.754;2022-10-31T20:38:23;21.02;;;9.20;;
28605;SDS011;46498;49.968;7.754;2022-10-31T20:43:24;22.80;;;7.62;;
28605;SDS011;46498;49.968;7.754;2022-10-31T20:48:25;11.18;;;6.25;;
28605;SDS011;46498;49.968;7.754;2022-10-31T20:53:25;13.85;;;6.30;;
28605;SDS011;46498;49.968;7.754;2022-10-31T20:58:27;14.77;;;6.43;;
28605;SDS011;46498;49.968;7.754;2022-10-31T21:03:28;14.10;;;5.57;;
28605;SDS011;46498;49.968;7.754;2022-10-31T21:08:29;15.20;;;6.03;;
28605;SDS011;46498;49.968;7.754;2022-10-31T21:13:33;18.10;;;7.25;;
28605;SDS011;46498;49.968;7.754;2022-10-31T21:18:41;17.08;;;6.97;;
28605;SDS011;46498;49.968;7.754;2022-10-31T21:23:43;14.60;;;7.10;;
28605;SDS011;46498;49.968;7.754;2022-10-31T21:28:44;15.20;;;6.35;;
28605;SDS011;46498;49.968;7.754;2022-10-31T21:33:46;26.17;;;9.70;;
28605;SDS011;46498;49.968;7.754;2022-10-31T21:38:49;59.42;;;26.92;;
28605;SDS011;46498;49.968;7.754;2022-10-31T21:43:51;25.05;;;10.55;;
28605;SDS011;46498;49.968;7.754;2022-10-31T21:48:56;21.23;;;10.25;;
28605;SDS011;46498;49.968;7.754;2022-10-31T21:53:57;25.23;;;11.20;;
28605;SDS011;46498;49.968;7.754;2022-10-31T21:59:16;23.85;;;12.10;;
28605;SDS011;46498;49.968;7.754;2022-10-31T22:04:17;34.13;;;15.13;;
28605;SDS011;46498;49.968;7.754;2022-10-31T22:09:18;38.03;;;16.77;;
28605;SDS011;46498;49.968;7.754;2022-10-31T22:14:19;39.13;;;16.87;;
28605;SDS011;46498;49.968;7.754;2022-10-31T22:19:20;39.97;;;17.92;;
28605;SDS011;46498;49.968;7.754;2022-10-31T22:24:21;36.17;;;18.12;;
28605;SDS011;46498;49.968;7.754;2022-10-31T22:29:22;39.80;;;18.87;;
28605;SDS011;46498;49.968;7.754;2022-10-31T22:34:23;45.67;;;20.65;;
28605;SDS011;46498;49.968;7.754;2022-10-31T22:39:24;32.88;;;17.20;;
28605;SDS011;46498;49.968;7.754;2022-10-31T22:44:24;37.88;;;18.33;;
28605;SDS011;46498;49.968;7.754;2022-10-31T22:49:25;33.17;;;16.95;;
28605;SDS011;46498;49.968;7.754;2022-10-31T22:54:26;32.42;;;16.80;;
28605;SDS011;46498;49.968;7.754;2022-10-31T22:59:27;36.55;;;16.55;;
28605;SDS011;46498;49.968;7.754;2022-10-31T23:04:28;32.15;;;16.40;;
28605;SDS011;46498;49.968;7.754;2022-10-31T23:09:29;36.47;;;17.25;;
28605;SDS011;46498;49.968;7.754;2022-10-31T23:14:29;36.58;;;15.63;;
28605;SDS011;46498;49.968;7.754;2022-10-31T23:19:30;35.85;;;16.87;;
28605;SDS011;46498;49.968;7.754;2022-10-31T23:24:36;31.08;;;16.37;;
28605;SDS011;46498;49.968;7.754;2022-10-31T23:29:59;32.67;;;17.00;;
28605;SDS011;46498;49.968;7.754;2022-10-31T23:35:03;34.28;;;17.52;;
28605;SDS011;46498;49.968;7.754;2022-10-31T23:40:06;29.85;;;15.02;;
28605;SDS011;46498;49.968;7.754;2022-10-31T23:45:08;32.30;;;16.23;;
28605;SDS011;46498;49.968;7.754;2022-10-31T23:50:09;31.08;;;14.50;;
28605;SDS011;46498;49.968;7.754;2022-10-31T23:55:09;28.33;;;13.45;;
